Smithfield - 24 Hour Table
Date & TimeSolar
Radiation
(W/m²)
Wind
Speed
(mph)
Wind
Direction
(degrees)
Air
Temperature
(°F)
Relative
Humidity
(%)
Precipitation
(inches)
Max
Wind
Speed
(mph)
2022/08/19 07:00 82 2.3 73 65.5 64 0.00 9.2
2022/08/19 06:00 2 3.5 41 67.0 62 0.00 8.8
2022/08/19 05:00 0 3.8 67 67.4 57 0.00 7.1
2022/08/19 04:00 0 4.2 37 70.2 42 0.00 7.4
2022/08/19 03:00 0 3.2 67 70.2 48 0.00 6.3
2022/08/19 02:00 0 3.6 60 74.9 39 0.00 8.5
2022/08/19 01:00 0 5.6 50 72.5 40 0.00 9.9
2022/08/19 00:00 0 4.4 50 72.6 57 0.00 7.1
2022/08/18 23:00 0 4.2 23 73.6 42 0.00 7.1
2022/08/18 22:00 0 3.1 52 73.7 37 0.00 5.3
2022/08/18 21:00 0 2.7 89 77.8 41 0.00 6.7
2022/08/18 20:00 7 2.9 33 78.6 31 0.00 6.3
2022/08/18 19:00 67 2.7 34 80.7 43 0.00 7.8
2022/08/18 18:00 149 2.1 32 81.4 44 0.00 4.2
2022/08/18 17:00 224 2.1 166 84.5 52 0.00 6.7
2022/08/18 16:00 438 2.6 346 86.2 31 0.00 5.3
2022/08/18 15:00 535 3.3 199 84.4 31 0.00 10.3
2022/08/18 14:00 646 4.6 240 82.9 40 0.00 10.3
2022/08/18 13:00 271 2.7 343 75.3 37 0.00 7.8
2022/08/18 12:00 179 2.0 7 73.1 61 0.00 5.3
2022/08/18 11:00 169 1.6 38 71.4 69 0.00 3.5
2022/08/18 10:00 181 1.2 138 70.1 64 0.00 2.8
2022/08/18 09:00 160 2.0 188 68.3 68 0.00 4.6
2022/08/18 08:00 119 2.6 43 64.9 54 0.00 4.9